x

8452944 - Conimicut Light, Ri (cptr1) Weather Station

12:18 - Thu 30th Jun 2016 All times are EDT. -4 hours from GMT.

  • Wind
    3mph, 5mph gusts
  • Sea Temp 73°f
  • Ar Temp 71°f
  • Sea Pressure 1012.8mb
  • 8452944 - Conimicut Light, Ri
  • 8452944 - Conimicut Light, Ri

More Historic Weather Station data

Upgrade to MSW Pro to gain access to the past 30 days of data for over 8000 Wavebouys and Weather Stations around the globe.

Join Pro

Comparision Forecast

View Surf forecast
   
Qui 06/30 12:18 3 5 mph 1012.8mb 73f 71f
12:12 2 3 mph 1012.8mb 73f 71f
12:06 2 3 mph 1012.8mb 73f 71f
12:00 2 3 mph 1012.9mb 73f 71f
Qua 06/29 11:54 3 6 mph 1012.8mb 73f 71f
11:48 5
mph
1012.9mb 73f 71f
11:42 3 5 mph 1012.9mb 73f 71f
11:36 3 5 mph 1012.9mb 73f 71f
11:30 3 5 mph 1012.9mb 73f 71f
11:24 3 5 mph 1012.9mb 73f 71f
11:18 3 5 mph 1012.9mb - -
11:12 5 6 mph 1012.9mb - -
11:06 6 7 mph 1012.8mb - -
11:00  -  mph 1012.7mb 73f -
10:54  -  mph 1012.7mb 73f -
10:48  -  mph - 73f -
10:42  -  mph - 73f -
10:36  -  mph - 73f -
10:30  -  mph - 73f -
10:24  -  mph - 73f -
10:18  -  mph 1012.6mb - -
10:12  -  mph 1012.6mb - -
10:06  -  mph 1012.6mb - -
10:00  -  mph - 73f -
9:54  -  mph - 73f -
9:48 8 9 mph - 73f -
9:42 8 9 mph - 73f -
9:36 7 9 mph - 73f -
9:30  -  mph 1012.3mb 73f -
9:24  -  mph 1012.2mb 73f -
9:18  -  mph 1012.1mb 73f -
9:12  -  mph 1012mb 73f -
9:06  -  mph 1012mb 73f -
9:00  -  mph - 72f -
8:54  -  mph - 72f -
8:48  -  mph - 72f 70f
8:42  -  mph - 72f 70f
8:36  -  mph - 72f 70f
8:30  -  mph - 72f 70f
8:24  -  mph - 72f 70f
8:18  -  mph 1011.7mb 72f 70f
8:12  -  mph 1011.7mb 72f 70f
8:06  -  mph 1011.7mb 72f 70f
8:00  -  mph - 72f 71f
7:54  -  mph - 72f 71f
7:48  -  mph - 72f 71f
7:42  -  mph - 72f 71f
7:36  -  mph - 72f 71f
7:30  -  mph 1011.7mb 72f -
7:24  -  mph 1011.7mb 72f -
7:18  -  mph 1011.6mb 72f -
7:12  -  mph 1011.5mb 73f -
7:06  -  mph 1011.4mb 73f -
7:00  -  mph 1011.4mb 73f -
6:54  -  mph 1011.4mb 73f -
6:48  -  mph 1011.3mb 73f -
6:42  -  mph 1011.3mb 73f -
6:36  -  mph 1011.3mb 73f -
6:30  -  mph - 73f -
6:24  -  mph - 73f -
6:18 13 15 mph - - -
6:12 14 16 mph - - -
6:06 15 17 mph - - -
6:00 17 18 mph - - -
5:54 17 18 mph - - -
5:48  -  mph - 73f -
5:42  -  mph - 73f -
5:36  -  mph - 73f -
5:30 18 21 mph 1011.2mb 73f 72f
5:24 20 21 mph 1011.2mb 73f 72f
5:18 16 18 mph 1011.3mb 73f 72f
5:12 16 20 mph 1011.4mb 72f 72f
5:06 17 21 mph 1011.3mb 72f 72f
5:00 20 23 mph 1011.1mb 72f 72f
4:54 23 24 mph 1011mb 72f 72f
4:48 22 24 mph 1011mb 73f 72f
4:42 21 22 mph 1011.1mb 73f 72f
4:36 20 22 mph 1011.1mb 73f 72f
4:30 21 22 mph 1011mb 73f 72f
4:24 21 23 mph 1011.1mb 73f 72f
4:18 22 23 mph 1011.1mb 73f 72f
4:12 20 21 mph 1011mb 73f 72f
4:06 20 21 mph 1011.1mb 73f 72f
4:00 20 22 mph 1011mb 73f 72f
3:54 22 23 mph 1011mb 73f 72f
3:48 20 22 mph 1011.1mb 73f 72f
3:42 22 23 mph 1011mb 73f 73f
3:36 21 22 mph 1011.1mb 73f 72f
3:30 20 21 mph 1011.2mb 73f 73f
3:24 18 21 mph 1011.2mb 73f 73f
3:18 20 22 mph 1011.1mb 73f 73f
3:12 18 21 mph 1011mb 73f 73f
3:06 20 21 mph 1011mb 73f 73f
3:00 17 20 mph 1011mb 73f 73f
2:54 18 21 mph 1011.1mb 73f 73f
2:48 18 20 mph 1011.1mb 73f 73f
2:42 17 18 mph 1011mb 73f 73f
2:36 15 17 mph 1011.2mb 73f 73f
2:30 16 17 mph 1011.2mb 73f 73f
2:24 15 17 mph 1011.2mb 73f 73f
2:18 16 18 mph 1011.2mb 73f 73f
2:12 16 18 mph 1011.2mb 73f 73f
2:06 16 18 mph 1011.3mb 73f 73f
2:00 15 17 mph 1011.4mb 72f 73f
1:54 15 16 mph 1011.4mb 72f 73f
1:48 15 16 mph 1011.4mb 72f 73f
1:42 15 16 mph 1011.5mb 72f 73f
1:36 14 15 mph 1011.5mb 72f 73f
1:30 14 15 mph 1011.6mb 72f 73f
1:24 13 14 mph 1011.6mb 72f 72f
1:18 14
mph
1011.7mb 72f 72f
1:12 13 14 mph 1011.6mb 72f 72f
1:06 14
mph
1011.6mb 72f 72f
1:00 11 13 mph 1011.7mb 72f 72f
12:54 11 13 mph 1011.7mb 72f 72f
12:48 11 13 mph 1011.8mb 72f 72f
12:42 11 14 mph 1011.8mb 72f 72f
12:36 13 14 mph 1011.8mb 72f 72f
12:30 13 14 mph 1012mb 72f 71f
12:24 11 13 mph 1012.1mb 72f 71f
12:18 11 13 mph 1012.1mb 72f 71f
12:12 9 11 mph 1012.2mb 72f 71f
12:06 10 11 mph 1012.2mb 72f 71f
12:00 10 11 mph 1012.2mb 72f 71f
11:54 10 11 mph 1012.2mb 72f 71f
11:48 11 13 mph 1012.1mb 72f 71f
11:42 11 13 mph 1012.2mb 71f 70f
11:36 11 14 mph 1012.2mb 71f 70f
11:30 13 14 mph 1012.2mb 71f 70f
11:24 11 13 mph 1012.2mb 71f 70f
11:18 13
mph
1012.3mb 71f 70f
11:12 13 14 mph 1012.3mb 71f 70f
11:06 13 14 mph 1012.3mb 71f 70f
11:00 13 14 mph 1012.4mb 71f 70f
10:54 11
mph
1012.5mb 71f 69f
10:48 11
mph
1012.5mb 71f 69f
10:42 11 13 mph 1012.5mb 71f 69f
10:36 11 13 mph 1012.5mb 71f 70f
10:30 10 11 mph 1012.6mb 71f 70f
10:24 10 11 mph 1012.6mb 71f 70f
10:18 9 10 mph 1012.7mb 71f 70f
10:12 9 10 mph 1012.7mb 72f 70f
10:06 8 9 mph 1012.8mb 72f 69f
10:00 8 9 mph 1012.7mb 72f 69f
9:54 8
mph
1012.7mb 72f 69f
9:48 8 9 mph 1012.8mb 72f 69f
9:42 7 9 mph 1012.7mb 72f 69f
9:36 7 8 mph 1012.7mb 72f 69f
9:30 8
mph
1012.7mb 72f 69f
9:24 8 9 mph 1012.7mb 72f 69f
9:18 8 9 mph 1012.8mb 72f 69f
9:12 8
mph
1012.8mb 72f 69f
9:06 8
mph
1012.9mb 72f 69f
9:00 8
mph
1012.9mb 72f 69f
8:54 8
mph
1012.9mb 72f 69f
8:48 8
mph
1012.8mb 72f 69f
8:42 7 8 mph 1012.7mb 72f 69f
8:36 7 8 mph 1012.8mb 72f 69f
8:30 7
mph
1012.7mb 72f 69f
8:24 6 8 mph 1012.7mb 72f 69f
8:18 7 8 mph 1012.9mb 72f 69f
8:12 7 8 mph 1012.8mb 71f 69f
8:06 7 9 mph 1012.8mb 71f 69f
8:00 8 9 mph 1012.8mb 71f 69f
7:54 8 9 mph 1012.6mb 71f 69f
7:48 9 10 mph 1012.6mb 71f 69f
7:42 10 11 mph 1012.5mb 71f 69f
7:36 8 9 mph 1012.6mb 71f 69f
7:30 8 9 mph 1012.6mb 71f 69f
7:24 8 9 mph 1012.7mb 71f 69f
7:18 7 9 mph 1012.8mb 71f 69f
7:12 8 9 mph 1012.7mb 71f 69f
7:06 8 9 mph 1012.6mb 71f 69f
7:00 9 10 mph 1012.6mb 71f 69f
6:54 8 10 mph 1012.6mb 71f 69f
6:48 9 10 mph 1012.6mb 71f 69f
6:42 8 9 mph 1012.6mb 71f 69f
6:36 9 10 mph 1012.6mb 71f 69f
6:30 10 11 mph 1012.6mb 71f 69f
6:24 8 10 mph 1012.6mb 71f 69f
6:18 9 10 mph 1012.6mb 71f 69f
6:12 9 10 mph 1012.6mb 71f 69f
6:06 8 9 mph 1012.6mb 71f 69f
6:00 8 9 mph 1012.6mb 71f 69f
5:54 9
mph
1012.5mb 71f 69f
5:48 8 9 mph 1012.5mb 71f 69f
5:42 9 10 mph 1012.5mb 71f 69f
5:36 9 13 mph 1012.6mb 71f 69f
5:30 11 14 mph 1012.5mb 71f 69f
5:24 10 11 mph 1012.5mb 71f 69f
5:18 10 13 mph 1012.6mb 71f 69f
5:12 11 13 mph 1012.6mb 71f 69f
5:06 13 14 mph 1012.5mb 71f 69f
5:00 13 14 mph 1012.6mb 71f 69f
4:54 13 15 mph 1012.6mb 71f 69f
4:48 11 15 mph 1012.6mb 71f 69f
4:42 14 17 mph 1012.5mb 71f 69f
4:36 15 17 mph 1012.4mb 71f 69f
4:30 14 17 mph 1012.5mb 71f 69f
4:24 14 15 mph 1012.6mb 71f 69f
4:18 14 15 mph 1012.6mb 71f 69f
4:12 14 16 mph 1012.7mb 71f 69f
4:06 14 16 mph 1012.6mb 71f 69f
4:00 14 15 mph 1012.6mb 71f 69f
3:54 14 15 mph 1012.6mb 71f 69f
3:48 14 15 mph 1012.6mb 71f 69f
3:42 14 15 mph 1012.6mb 71f 69f
3:36 14 15 mph 1012.5mb 71f 69f
3:30 13 15 mph 1012.4mb 71f 69f
3:24 13 14 mph 1012.5mb 71f 69f
3:18 11 14 mph 1012.5mb 71f 69f
3:12 11 14 mph 1012.5mb 71f 69f
3:06 13 14 mph 1012.5mb 71f 69f
3:00 11 14 mph 1012.6mb 71f 69f
2:54 13 15 mph 1012.6mb 71f 69f
2:48 11 13 mph 1012.6mb 71f 69f
2:42 10 13 mph 1012.7mb 71f 69f
2:36 11 13 mph 1012.7mb 71f 69f
2:30 11 13 mph 1012.8mb 71f 69f
2:24 9 10 mph 1012.8mb 71f 68f
2:18 8 10 mph 1012.8mb 71f 68f
2:12 9 11 mph 1012.9mb 71f 68f
2:06 11 13 mph 1013mb 71f 68f
2:00 10 11 mph 1013mb 71f 68f
1:54 10 14 mph 1013.1mb 71f 68f
1:48  -  mph 1013.2mb 71f 68f
1:42  -  mph 1013.2mb 71f 68f
1:36  -  mph 1013.2mb 71f 68f
1:30 14 16 mph 1013.2mb 72f 68f
1:24 15 17 mph 1013.3mb 72f 68f
1:18 17 20 mph 1013.2mb 72f 68f
1:12 17 18 mph 1013.3mb 72f 68f
1:06 15 20 mph 1013.4mb 72f 68f
1:00 18 21 mph 1013.5mb 72f 67f
12:54 18 22 mph 1013.6mb 72f 68f
12:48 21 23 mph 1013.7mb 72f 68f
12:42 21 25 mph 1013.8mb 72f 68f
12:36 22 24 mph 1013.8mb 72f 69f
12:30 22 24 mph 1013.8mb 72f 69f
12:24 21 23 mph 1013.8mb 72f 69f
12:18 21 23 mph 1013.7mb 72f 69f
12:12 21 25 mph 1013.6mb 72f 70f
12:06 21 23 mph 1013.6mb 72f 69f
12:00 20 22 mph 1013.7mb 72f 69f
Ter 06/28 11:54 17 20 mph 1013.7mb 72f 69f
11:48  -  mph 1013.8mb 72f 69f
11:42  -  mph 1013.8mb 72f 69f
11:36  -  mph 1013.9mb 72f 69f
11:30 14 15 mph 1013.9mb 72f 69f
11:24 13 15 mph 1013.9mb 72f 69f
11:18 14 16 mph 1014.1mb 72f 69f
11:12 15 17 mph 1014.1mb 72f 69f
11:06 14 15 mph 1014.3mb 72f 69f
11:00  -  mph 1014.3mb 72f -
10:54  -  mph 1014.3mb 72f -
10:48 13 14 mph - 72f -
10:42 13 15 mph - 72f -
10:36 14 16 mph - 72f -
10:30  -  mph 1014.3mb 72f 69f
10:24  -  mph 1014.3mb 72f 69f
10:18  -  mph 1014.2mb 72f -
10:12  -  mph 1014.1mb 71f -
10:06  -  mph 1014mb 71f -
10:00  -  mph 1014.2mb 71f -
9:54  -  mph 1014.1mb 71f -
9:48  -  mph 1014.4mb 71f -
9:42  -  mph 1014.4mb 71f -
9:36  -  mph 1014.4mb 71f -
9:30  -  mph 1014.5mb 71f -
9:24  -  mph 1014.6mb 71f -
9:18  -  mph 1014.6mb 71f 70f
9:12  -  mph 1014.6mb 71f 70f
9:06  -  mph 1014.5mb 71f 70f
9:00  -  mph - 71f 70f
8:54  -  mph - 71f 70f
8:48  -  mph 1014.5mb 71f -
8:42  -  mph 1014.5mb 71f -
8:36  -  mph 1014.4mb 71f -
8:30  -  mph - 71f -
8:24  -  mph - 71f -
8:18  -  mph 1014.5mb 71f 70f
8:12  -  mph 1014.6mb 71f 70f
8:06  -  mph 1014.6mb 71f 70f
8:00  -  mph 1014.6mb 71f -
7:54  -  mph 1014.6mb 71f -
7:48  -  mph - 71f -
7:42  -  mph - 71f -
7:36  -  mph - 71f -
7:30  -  mph - 71f -
7:24  -  mph - 71f -
7:18  -  mph 1014.6mb 71f -
7:12  -  mph 1014.5mb 71f -
7:06  -  mph 1014.6mb 71f -
7:00  -  mph - 71f -
6:54  -  mph - 71f -
6:48  -  mph - 71f -
6:42  -  mph - 71f -
6:36  -  mph - 71f -
6:30  -  mph 1014.4mb 71f -
6:24  -  mph 1014.6mb 71f -
6:18  -  mph - 71f -
6:12  -  mph - 71f -
6:06  -  mph - 71f -
6:00  -  mph 1014.5mb 71f 71f
5:54  -  mph 1014.5mb 71f 71f
5:48  -  mph - 71f 71f
5:42  -  mph - 71f 71f
5:36  -  mph - 71f 71f
5:30 16 18 mph 1014.5mb 71f 71f
5:24 15 17 mph 1014.5mb 71f 71f
5:18 15 17 mph 1014.6mb 71f 71f
5:12 16 17 mph 1014.6mb 71f 71f
5:06 15 17 mph 1014.7mb 71f 71f
5:00 15 17 mph 1014.8mb 71f 71f
4:54 14 16 mph 1015mb 72f 71f
4:48 15 16 mph 1014.9mb 72f 71f
4:42 16 18 mph 1014.8mb 72f 70f
4:36 15 16 mph 1014.8mb 71f 71f
4:30 14 17 mph 1014.9mb 71f 70f
4:24 15 17 mph 1014.9mb 71f 70f
4:18 15 20 mph 1015mb 71f 70f
4:12 17 20 mph 1015mb 71f 70f
4:06 16 17 mph 1015mb 71f 70f
4:00 14 16 mph 1015.3mb 71f 70f
3:54 14 15 mph 1015.4mb 71f 70f
3:48 13 15 mph 1015.4mb 71f 70f
3:42 15 17 mph 1015.5mb 71f 70f
3:36 15 18 mph 1015.5mb 71f 70f
3:30 16 18 mph 1015.4mb 71f 70f
3:24 17 18 mph 1015.4mb 71f 70f
3:18 14 15 mph 1015.5mb 71f 70f
3:12 14 16 mph 1015.5mb 71f 70f
3:06 15 17 mph 1015.7mb 71f 70f
3:00 16 20 mph 1015.7mb 71f 70f
2:54 17 18 mph 1015.8mb 71f 70f
2:48 14 15 mph 1015.7mb 71f 70f
2:42 10 11 mph 1015.8mb 71f 71f
2:36 9 11 mph 1015.7mb 71f 71f
2:30 11 15 mph 1015.7mb 71f 71f
2:24 14 15 mph 1015.8mb 71f 71f
2:18 15 17 mph 1015.9mb 71f 71f
2:12 15 17 mph 1015.9mb 71f 71f
2:06 14 15 mph 1015.9mb 71f 71f
2:00 14 15 mph 1015.9mb 71f 71f
1:54 13 14 mph 1015.9mb 71f 71f
1:48 11 14 mph 1016mb 71f 71f
1:42 13 15 mph 1016mb 71f 71f
1:36 13 15 mph 1016mb 71f 71f
1:30 15 16 mph 1016.1mb 71f 71f
1:24 15 16 mph 1016.1mb 71f 71f
1:18 14 15 mph 1016.2mb 71f 71f
1:12 14 15 mph 1016.2mb 71f 71f
1:06 15 17 mph 1016.2mb 71f 71f
1:00 17 18 mph 1016.3mb 71f 70f
12:54 16 17 mph 1016.3mb 71f 70f
12:48 15 17 mph 1016.3mb 71f 70f
12:42 14 16 mph 1016.4mb 71f 70f
12:36 15 17 mph 1016.4mb 71f 70f
12:30 14 16 mph 1016.4mb 71f 70f
12:24 14 17 mph 1016.5mb 71f 70f
12:18 15 16 mph 1016.5mb 71f 70f
12:12 16 17 mph 1016.5mb 71f 70f
12:06 16 17 mph 1016.5mb 71f 70f
12:00 15 17 mph 1016.6mb 71f 70f
11:54 14 16 mph 1016.7mb 71f 70f
11:48 14 16 mph 1016.7mb 71f 70f
11:42 15 17 mph 1016.7mb 71f 70f
11:36 15 18 mph 1016.6mb 71f 70f
11:30 16 18 mph 1016.7mb 71f 70f
11:24 18 20 mph 1016.6mb 71f 70f
11:18 17 18 mph 1016.7mb 71f 70f
11:12 15 17 mph 1016.7mb 71f 70f
11:06 15 17 mph 1016.7mb 71f 71f
11:00 16 17 mph 1016.6mb 71f 70f
10:54 16 17 mph 1016.7mb 71f 70f
10:48 15 16 mph 1016.7mb 71f 70f
10:42 15 16 mph 1016.7mb 71f 70f
10:36 15 17 mph 1016.8mb 71f 70f
10:30 16 18 mph 1016.7mb 71f 70f
10:24 17 18 mph 1016.8mb 71f 70f
10:18 16 18 mph 1016.8mb 71f 70f
10:12 13 16 mph 1016.9mb 71f 70f
10:06 16 17 mph 1016.9mb 71f 70f
10:00 15 17 mph 1016.9mb 71f 70f
9:54 17
mph
1016.9mb 71f 69f
9:48  -  mph 1017mb 71f 69f
9:42  -  mph 1017mb 71f 69f
9:36  -  mph 1017.1mb 71f 69f
9:30 15
mph
1017.1mb 71f 69f
9:24 14 15 mph 1017.1mb 71f 70f
9:18 14 15 mph 1017.2mb 71f 70f
9:12 14
mph
1017.2mb 71f 69f
9:06 11 14 mph 1017.2mb 71f 69f
9:00 13 14 mph 1017.2mb 71f 69f
8:54 13 14 mph 1017.2mb 71f 69f
8:48 10 11 mph 1017.2mb 71f 69f
8:42 10 14 mph 1017.3mb 71f 69f
8:36 13 14 mph 1017.3mb 71f 69f
8:30 13 14 mph 1017.3mb 71f 69f
8:24 14 15 mph 1017.2mb 71f 69f
8:18 15
mph
1017mb 71f 69f
8:12 14 15 mph 1017.1mb 71f 69f
8:06 13 15 mph 1017.2mb 71f 69f
8:00 13 15 mph 1017.1mb 71f 69f
7:54 14
mph
1017.2mb 71f 68f
7:48 13 14 mph 1017.1mb 71f 68f
7:42 13 15 mph 1017mb 71f 68f
7:36 14 15 mph 1017mb 71f 68f
7:30 14 15 mph 1017mb 71f 68f
7:24 15 17 mph 1017mb 71f 68f
7:18 16 17 mph 1017mb 71f 68f
7:12 16 17 mph 1016.9mb 71f 68f
7:06 16
mph
1016.9mb 71f 68f
7:00 15 16 mph 1016.9mb 71f -
6:54 14 16 mph 1016.9mb 71f -
6:48 14 16 mph 1016.9mb 71f -
6:42 14 17 mph 1016.8mb 71f -
6:36 16 18 mph 1016.7mb 71f -
6:30 16 17 mph 1016.7mb 71f 68f
6:24 16 17 mph 1016.7mb 71f 68f
6:18 16 17 mph 1016.6mb 71f 68f
6:12 17 18 mph 1016.6mb 71f 68f
6:06 16 18 mph 1016.6mb 71f 68f
6:00 16 18 mph 1016.5mb 71f 68f
5:54 16 18 mph 1016.5mb 71f 68f
5:48 16 18 mph 1016.5mb 71f 68f
5:42 17 20 mph 1016.4mb 71f 68f
5:36 15 20 mph 1016.5mb 71f 68f
5:30 15 20 mph 1016.6mb 71f 68f
5:24 18 21 mph 1016.6mb 71f 68f
5:18 18 21 mph 1016.6mb 71f 68f
5:12 18 21 mph 1016.6mb 71f 68f
5:06 18 21 mph 1016.6mb 71f 68f
5:00 17 21 mph 1016.6mb 71f 68f
4:54 18 20 mph 1016.5mb 71f 68f
4:48 14 16 mph 1016.6mb 71f 68f
4:42 15 18 mph 1016.6mb 71f 68f
4:36 16 18 mph 1016.6mb 71f 68f
4:30 16 18 mph 1016.6mb 71f 68f
4:24 14 16 mph 1016.6mb 71f 68f
4:18 13 16 mph 1016.6mb 71f 68f
4:12 14 16 mph 1016.6mb 71f 68f
4:06 14 16 mph 1016.6mb 71f 68f
4:00 15 17 mph 1016.5mb 71f 68f
3:54 15 17 mph 1016.6mb 71f 68f
3:48 15 17 mph 1016.6mb 71f 68f
3:42 15 18 mph 1016.6mb 71f 68f
3:36 16 20 mph 1016.6mb 71f 68f
3:30 17 20 mph 1016.6mb 71f 69f
3:24 18 22 mph 1016.7mb 71f 69f
3:18 17 21 mph 1016.7mb 71f 69f
3:12 16 20 mph 1016.7mb 71f 69f
3:06 17 20 mph 1016.8mb 71f 69f
3:00 15 17 mph 1016.9mb 71f 68f
2:54 15 17 mph 1016.9mb 71f 68f
2:48 15 17 mph 1017.1mb - -
2:42 16 17 mph 1017.2mb - -
2:36 15 16 mph 1017.2mb - -
2:30 15 17 mph 1017.2mb 71f 69f
2:24 15 17 mph 1017.3mb 71f 69f
2:18 16 18 mph 1017.4mb 71f 69f
2:12 17 20 mph 1017.4mb 71f 69f
2:06 17 18 mph 1017.5mb 71f 68f
2:00 17 20 mph 1017.4mb 71f 68f
1:54 18 20 mph 1017.5mb 71f 68f
1:48 18 20 mph - - -
1:42 16 20 mph - - -
1:36 17 18 mph - - -
1:30 16 18 mph 1017.6mb 71f 68f
1:24 14 16 mph 1017.7mb 71f 68f
1:18 14 17 mph 1017.7mb 71f 69f
1:12 15 17 mph 1017.7mb 71f 69f
1:06 16 18 mph 1017.8mb 71f 69f
1:00 15 17 mph 1017.8mb 71f 69f
12:54 15 17 mph 1017.8mb 71f 69f
12:48 15 16 mph 1017.8mb 71f 69f
12:42 15 17 mph 1017.8mb 71f 69f
12:36 15 16 mph 1017.8mb 71f 69f
12:30 15 16 mph 1017.8mb 71f 69f
12:24 15 17 mph 1017.9mb 71f 69f
12:18 16 17 mph 1018mb 71f 69f
12:12 15 17 mph 1018mb 71f 69f
12:06 15 17 mph 1018.1mb 71f 69f
12:00 15 17 mph 1018.2mb 71f 69f
Seg 06/27 11:54 16 18 mph 1018.2mb 71f 69f
11:48  -  mph 1018.3mb 71f 69f
11:42  -  mph 1018.2mb 71f 69f
11:36  -  mph 1018.2mb 71f 68f
11:30 16 18 mph 1018.1mb 71f 68f
11:24 16 18 mph 1018.1mb 71f 69f
11:18 16 18 mph 1018.2mb 71f 69f
11:12 15 17 mph 1018.3mb 71f 69f
11:06 16 18 mph 1018.3mb 71f 69f
11:00  -  mph - 71f 69f
10:54  -  mph - 71f 69f
10:48  -  mph 1018.4mb 71f -
10:42  -  mph 1018.3mb 71f -
10:36  -  mph 1018.4mb 71f -
10:30  -  mph 1018.4mb 71f -
10:24  -  mph 1018.3mb 71f -
10:18  -  mph 1018.2mb - 70f
10:12  -  mph 1018.3mb - 70f
10:06  -  mph 1018.3mb - 70f
10:00  -  mph - 71f -
9:54  -  mph - 71f -
9:48  -  mph 1018.3mb - -
9:42  -  mph 1018.3mb - -
9:36  -  mph 1018.3mb - -
9:30  -  mph 1018.3mb 71f -
9:24  -  mph 1018.3mb 71f -
9:18  -  mph 1018.2mb 71f -
9:12  -  mph 1018.2mb 71f -
9:06  -  mph 1018.1mb 71f -
9:00  -  mph 1018.1mb 71f 69f
8:54  -  mph 1018mb 71f 69f
8:48  -  mph 1018mb 71f -
8:42  -  mph 1017.9mb 71f -
8:36  -  mph 1017.8mb 71f -
8:30  -  mph 1017.8mb 71f -
8:24  -  mph 1017.7mb 71f -
8:18  -  mph 1017.6mb 71f -
8:12  -  mph 1017.7mb 70f -
8:06  -  mph 1017.7mb 70f -
8:00  -  mph 1017.7mb 70f -
7:54  -  mph 1017.7mb 70f -
7:48  -  mph 1017.7mb - -
7:42  -  mph 1017.7mb - -
7:36  -  mph 1017.8mb - -
7:30  -  mph - 70f -
7:24  -  mph - 70f -
7:18  -  mph 1017.9mb 70f -
7:12  -  mph 1017.8mb 70f -
7:06  -  mph 1017.8mb 70f -
7:00  -  mph 1017.8mb 70f -
6:54  -  mph 1017.9mb 70f -
6:48  -  mph 1017.8mb 70f -
6:42  -  mph 1017.9mb 70f -
6:36  -  mph 1017.9mb 70f -
6:30  -  mph 1017.8mb 70f -
6:24  -  mph 1017.8mb 70f -
6:18  -  mph - 70f 71f
6:12  -  mph - 71f 71f
6:06  -  mph - 71f 71f
6:00  -  mph 1017.8mb 71f -
5:54  -  mph 1017.8mb 71f -
5:48  -  mph 1017.8mb 70f 71f
5:42  -  mph 1017.8mb 70f 70f
5:36  -  mph 1017.9mb 70f 70f
5:30 18 22 mph 1017.9mb 70f 70f
5:24 18 20 mph 1018mb 70f 70f
5:18 17 22 mph 1018.1mb 70f 70f
5:12 17 20 mph 1018.1mb 70f 70f
5:06 18 21 mph 1018.2mb 70f 70f
5:00 20 22 mph 1018.2mb 70f 70f
4:54 18 21 mph 1018.2mb 70f 70f
4:48 18 22 mph 1018.2mb 70f 69f
4:42 20 21 mph 1018.3mb 70f 69f
4:36 20 22 mph 1018.4mb 70f 69f
4:30 20 22 mph 1018.4mb 70f 69f
4:24 20 22 mph 1018.5mb 70f 69f
4:18 20 22 mph 1018.5mb 70f 69f
4:12 20 22 mph 1018.5mb 70f 69f
4:06 20 23 mph 1018.5mb 70f 69f
4:00 21 23 mph 1018.5mb 71f 69f
3:54 22 24 mph 1018.5mb 71f 69f
3:48 23 25 mph 1018.5mb 71f 69f
3:42 24 26 mph 1018.5mb 71f 69f
3:36 25 26 mph 1018.5mb 71f 69f
3:30 24 28 mph 1018.5mb 71f 69f
3:24 25 28 mph 1018.5mb 71f 69f
3:18 21 25 mph 1018.6mb 71f 69f
3:12 23 25 mph 1018.5mb 72f 69f
3:06 22 25 mph 1018.5mb 72f 69f
3:00 23 28 mph 1018.4mb 72f 69f
2:54 25 26 mph 1018.3mb 71f 69f
2:48  -  mph 1018.3mb 71f 70f
2:42  -  mph 1018.3mb 71f 70f
2:36  -  mph 1018.3mb 71f 70f
2:30 28 31 mph 1018.2mb 71f 70f
2:24 26 29 mph 1018.2mb 71f 70f
2:18 22 26 mph 1018.3mb 71f 71f
2:12 25 28 mph 1018.3mb 71f 70f
2:06 25 28 mph 1018.4mb 71f 71f
2:00 28 29 mph 1018.4mb 71f 71f
1:54 26 29 mph 1018.4mb 71f 71f
1:48 24 26 mph 1018.5mb 71f 71f
1:42 24 26 mph 1018.6mb 71f 71f
1:36 23 25 mph 1018.7mb 71f 71f
1:30 23 25 mph 1018.7mb 71f 71f
1:24 22 24 mph 1018.8mb 71f 71f
1:18 24 25 mph 1018.9mb 71f 71f
1:12 20 23 mph 1019mb 71f 71f
1:06 20 23 mph 1019mb 71f 71f
1:00 21 24 mph 1019.1mb 71f 71f
12:54 21 24 mph 1019.2mb 71f 71f
12:48 22 25 mph 1019.2mb 71f 71f
12:42 18 22 mph 1019.3mb 71f 71f
12:36 21 23 mph 1019.3mb 71f 70f
12:30 22 24 mph 1019.3mb 71f 70f
12:24 22 24 mph 1019.4mb 71f 70f
12:18 21 23 mph 1019.5mb 71f 70f
12:12 20 23 mph 1019.6mb 71f 70f
12:06 21 23 mph 1019.6mb 71f 70f
12:00 22 24 mph 1019.6mb 71f 70f
11:54 24 25 mph 1019.6mb 71f 69f
11:48 23 26 mph 1019.6mb 71f 70f
11:42 25 26 mph 1019.6mb 71f 69f
11:36 25 26 mph 1019.6mb 71f 70f
11:30 22 23 mph 1019.7mb 70f 70f
11:24 22 25 mph 1019.7mb 70f 70f
11:18 23 28 mph 1019.6mb 70f 70f
11:12 25 28 mph 1019.7mb 70f 69f
11:06 24 26 mph 1019.7mb 70f 69f
11:00 21 23 mph 1019.6mb 70f 69f
10:54 17 20 mph 1019.7mb 70f 70f
10:48 15 16 mph 1019.7mb 70f 71f
10:42 14 16 mph 1019.7mb 70f 71f
10:36 13 15 mph 1019.8mb 70f 70f
10:30 14 17 mph 1019.9mb 70f 70f
10:24 14 16 mph 1020mb 70f 70f
10:18 15 16 mph 1020mb 70f 70f
10:12 15 18 mph 1020.1mb 71f 69f
10:06 15 16 mph 1020.1mb 71f 69f
10:00 14 15 mph 1020.2mb 71f 69f
9:54 10 14 mph 1020.2mb 71f 69f
9:48 13 16 mph 1020.2mb 71f 69f
9:42 15 17 mph 1020.2mb 71f 69f
9:36 15 16 mph 1020.3mb 71f 69f
9:30 14 15 mph 1020.5mb 71f 69f
9:24 14 15 mph 1020.5mb 70f 69f
9:18 11 14 mph 1020.6mb 70f 69f
9:12 13 14 mph 1020.7mb 70f 69f
9:06 13 14 mph 1020.7mb 70f 68f
9:00 13 14 mph 1020.7mb 70f 68f
8:54 11 13 mph 1020.8mb 70f 68f
8:48 11 13 mph 1020.8mb 70f 68f
8:42 11 13 mph 1020.8mb 70f 68f
8:36 11 13 mph 1020.9mb 70f 67f
8:30 11 13 mph 1020.9mb 70f 67f
8:24 11 14 mph 1020.9mb 70f 67f
8:18 13 14 mph 1020.8mb 70f 67f
8:12 13 14 mph 1020.9mb 70f 67f
8:06 14 15 mph 1020.9mb 70f 66f
8:00 14 16 mph 1020.9mb 70f 66f
7:54 14 16 mph 1021mb 70f 66f
7:48 15 17 mph 1021mb 70f 66f
7:42 15 17 mph 1021mb 70f 66f
7:36 15 18 mph 1020.9mb 70f 66f
7:30 16 17 mph 1021mb 70f 66f
7:24 16 20 mph 1021mb 70f 66f
7:18 16 20 mph 1021.1mb 70f 66f
7:12 14 16 mph 1021.2mb 70f 66f
7:06 14 16 mph 1021.2mb 70f 65f
7:00 14 17 mph 1021.3mb 70f 66f
6:54 15 17 mph 1021.3mb 70f 65f
6:48 15 17 mph 1021.2mb 70f 65f
6:42 15 17 mph 1021.2mb 70f 65f
6:36 14 16 mph 1021.2mb 70f 65f
6:30 14 16 mph 1021.2mb 70f 65f
6:24 13 15 mph 1021.1mb 70f 65f
6:18 13 15 mph 1021.2mb 70f 65f
6:12 13 17 mph 1021.2mb 70f 65f
6:06 15 18 mph 1021.2mb 70f 65f
6:00 16 18 mph 1021.1mb 70f 65f
5:54 16 17 mph 1021mb 70f 65f
5:48 15 17 mph 1021mb 70f 64f
5:42 14 15 mph 1021mb 70f 64f
5:36 14 15 mph 1021mb 70f 65f
5:30 14 15 mph 1020.9mb 70f 64f
5:24 11 13 mph 1020.9mb 70f 64f
5:18 13 14 mph 1020.9mb 70f 64f
5:12 11 16 mph 1020.8mb 70f 64f
5:06 14 15 mph 1020.9mb 70f 64f
5:00 14 16 mph 1020.9mb 69f 64f
4:54 13 14 mph 1020.9mb 69f 64f
4:48 13 16 mph 1020.9mb 69f 64f
4:42 13 15 mph 1020.9mb 69f 64f
4:36 13 17 mph 1021mb 69f 64f
4:30 13 15 mph 1021mb 69f 64f
4:24 13 15 mph 1021mb 70f 64f
4:18 14 16 mph 1020.9mb 70f 64f
4:12 16 18 mph 1020.9mb 70f 65f
4:06 17 20 mph 1020.8mb 70f 64f
4:00 17 20 mph 1020.8mb 70f 64f
3:54 17 18 mph 1020.7mb 70f 65f
3:48 16 18 mph 1020.8mb 70f 65f
3:42 15 18 mph 1020.9mb 70f 65f
3:36 16 18 mph 1020.9mb 70f 65f
3:30 15 17 mph 1020.9mb 70f 65f
3:24 15 17 mph 1020.9mb 70f 65f
3:18 17 18 mph 1020.9mb 70f 65f
3:12 16 17 mph 1020.9mb 70f 65f
3:06 15 17 mph 1020.9mb 70f 64f
3:00 14 16 mph 1020.9mb 70f 64f
2:54 14 15 mph 1020.9mb 70f 64f
2:48 13 15 mph 1021mb 70f -
2:42 11 14 mph 1020.9mb 70f -
2:36 10 11 mph 1020.9mb 70f -
2:30 10 11 mph 1020.9mb 70f 64f
2:24 9 10 mph 1021mb 70f 64f
2:18 9 10 mph 1021mb 70f 64f
2:12 8 10 mph 1021mb 70f 64f
2:06 8 10 mph 1021mb 70f 64f
2:00 9 11 mph 1021mb 70f 64f
1:54 10 13 mph 1020.9mb 70f 64f
1:48 10 11 mph 1020.9mb - -
1:42 10 11 mph 1020.9mb - -
1:36 10 11 mph 1021mb - -
1:30 10 11 mph 1021.1mb 70f 63f
1:24 10 11 mph 1021.1mb 70f 63f
1:18 11 14 mph 1021.1mb 70f 64f
1:12 11 13 mph 1021.2mb 70f 64f
1:06 11 13 mph 1021.1mb 70f 64f
1:00 9 11 mph 1021.2mb 71f 64f
12:54 8 9 mph 1021.2mb 71f 64f
12:48 8 11 mph 1021.2mb 71f 64f
12:42 9 11 mph 1021.2mb 71f 64f
12:36 8 9 mph 1021.2mb 71f 64f
12:30 9 11 mph 1021.3mb 71f 64f
12:24 10 11 mph 1021.3mb 71f 64f
12:18 11 13 mph 1021.4mb 71f 64f
12:12 10 13 mph 1021.3mb 71f 64f
12:06 10 13 mph 1021.4mb 71f 65f
12:00 10 13 mph 1021.4mb 71f 65f
Dom 06/26 11:54 9 13 mph 1021.3mb 71f 65f
11:48 11 13 mph 1021.4mb 71f 65f
11:42 10 11 mph 1021.4mb 71f 65f
11:36 10 14 mph 1021.4mb 71f 65f
11:30 13 15 mph 1021.3mb 71f 66f
11:24 14 17 mph 1021.3mb 71f 66f
11:18 15 17 mph 1021.4mb 71f 66f
11:12 16 17 mph 1021.3mb 71f 66f
11:06 15 17 mph 1021.2mb 71f 66f
11:00  -  mph 1021.1mb 71f -
10:54  -  mph 1021.2mb 71f -
10:48  -  mph - 71f -
10:42  -  mph - 71f -
10:36  -  mph - 71f -
10:30  -  mph 1021.3mb 71f -
10:24  -  mph 1021.4mb 71f -
10:18  -  mph 1021.4mb 71f 66f
10:12  -  mph 1021.5mb 71f 66f
10:06  -  mph 1021.5mb 71f 66f
10:00  -  mph - 71f -
9:54  -  mph - 71f -
9:48  -  mph - 71f -
9:42  -  mph - 71f -
9:36  -  mph - 71f -
9:30  -  mph 1021.4mb 71f -
9:24  -  mph 1021.4mb 71f -
9:18  -  mph 1021.5mb 71f -
9:12  -  mph 1021.4mb 71f -
9:06  -  mph 1021.4mb 71f -
9:00  -  mph 1021.4mb 71f -
8:54  -  mph 1021.3mb 71f -
8:48  -  mph - 71f -
8:42  -  mph - 71f -
8:36  -  mph - 71f -
8:30  -  mph - 71f -
8:24  -  mph - 70f -
8:18  -  mph 1021.5mb 70f 69f
8:12  -  mph 1021.6mb 70f 69f
8:06  -  mph 1021.6mb 70f 69f
8:00  -  mph - 70f -
7:54  -  mph - 70f -
7:48  -  mph - 71f -
7:42  -  mph - 71f -
7:36  -  mph - 71f -
7:30 16 18 mph 1021.9mb - -
7:24 17
mph
1022mb - -
7:18  -  mph 1022mb 71f 70f
7:12  -  mph 1022mb 71f 70f
7:06  -  mph 1022mb 70f 70f
7:00 18 20 mph 1022mb 70f -
6:54 18 20 mph 1022mb 70f -
6:48  -  mph - 70f -
6:42  -  mph - 70f -
6:36  -  mph - 70f -
6:30  -  mph - 70f -
6:24  -  mph - 70f -
6:18  -  mph 1022.2mb 70f 70f
6:12  -  mph 1022.3mb 70f 70f
6:06  -  mph 1022.3mb 70f 70f
6:00  -  mph 1022.3mb 70f -
5:54  -  mph 1022.4mb 70f -
5:48  -  mph 1022.4mb 70f -
5:42  -  mph 1022.4mb 70f -
5:36  -  mph 1022.4mb 70f -
5:30 21 23 mph 1022.5mb 70f 70f
5:24 21 23 mph 1022.5mb 70f 70f
5:18 22 24 mph 1022.5mb 70f 70f
5:12 22 23 mph 1022.6mb 70f 70f
5:06 22 23 mph 1022.6mb 70f 70f
5:00 22 23 mph 1022.7mb 70f 70f
4:54 22 24 mph 1022.7mb 70f 70f
4:48 22 24 mph 1022.8mb 70f 70f
4:42 22 24 mph 1022.7mb 70f 69f
4:36 22 24 mph 1022.7mb 70f 69f
4:30 21 23 mph 1022.8mb 70f 69f
4:24 21 24 mph 1022.9mb 70f 69f
4:18 22 23 mph 1022.9mb 70f 69f
4:12 22 24 mph 1023mb 70f 69f
4:06 21 24 mph 1023mb 70f 69f
4:00 23 25 mph 1023mb 70f 69f
3:54 22 25 mph 1022.9mb 70f 69f
3:48 23 25 mph 1023mb 70f 69f
3:42 23 25 mph 1023mb 70f 69f
3:36 23 25 mph 1023.1mb 70f 69f
3:30 24 25 mph 1023.1mb 70f 69f
3:24 22 24 mph 1023.2mb 71f 69f
3:18 22 24 mph 1023.2mb 71f 69f
3:12 23 24 mph 1023.3mb 71f 69f
3:06 23 24 mph 1023.4mb 71f 69f
3:00 22 24 mph 1023.4mb 71f 69f
2:54 22 24 mph 1023.4mb 71f 69f
2:48 23 24 mph 1023.5mb 71f 69f
2:42 22 24 mph 1023.5mb 71f 69f
2:36 22 23 mph 1023.5mb 71f 69f
2:30 22 23 mph 1023.5mb 71f 69f
2:24 21 22 mph 1023.5mb 71f 69f
2:18 21 23 mph 1023.6mb 71f 69f
2:12 22 23 mph 1023.6mb 71f 69f
2:06 20 21 mph 1023.6mb 71f 69f
2:00 18 20 mph 1023.6mb 71f 69f
1:54 18 22 mph 1023.7mb 71f 69f
1:48 20 22 mph 1023.7mb 71f 68f
1:42 20 21 mph 1023.8mb 71f 68f
1:36 18 21 mph 1023.7mb 71f 70f
1:30 20 21 mph 1023.8mb 71f 69f
1:24 20 22 mph 1023.8mb 71f 69f
1:18 21 22 mph 1023.8mb 71f 70f
1:12 21 22 mph 1023.7mb 71f 70f
1:06 18 20 mph 1023.8mb 71f 69f
1:00 18 21 mph 1023.7mb 71f 69f
12:54 17 21 mph 1023.7mb 71f 69f
12:48 20 21 mph 1023.7mb 71f 69f
12:42 18 21 mph 1023.7mb 71f 69f
12:36 18 21 mph 1023.7mb 71f 69f
12:30 16 17 mph 1024mb 71f 70f
12:24 16 18 mph 1024mb 71f 70f
12:18 15 16 mph 1023.9mb 71f 71f
12:12 15 16 mph 1023.9mb 71f 71f
12:06 15
mph
1023.9mb 71f 71f
12:00 14
mph
1023.9mb 71f 71f
11:54 13 14 mph 1024mb 71f 71f
11:48 14
mph
1024.1mb 71f 71f
11:42 13
mph
1024.2mb 70f 71f
11:36 11 13 mph 1024.3mb 70f 71f
11:30 11 13 mph 1024.3mb 70f 71f
11:24 10 11 mph 1024.2mb 70f 70f
11:18 11
mph
1024.2mb 70f 70f
11:12 11
mph
1024.2mb 70f 69f
11:06 10 11 mph 1024.3mb 70f 70f
11:00 9
mph
1024.2mb 70f 69f
10:54 9 10 mph 1024.3mb 69f 69f
10:48 8 9 mph 1024.3mb 69f 69f
10:42 8 9 mph 1024.3mb 69f 69f
10:36 8 10 mph 1024.1mb 69f 69f
10:30 9 10 mph 1024.1mb 69f 68f
10:24 8 9 mph 1024.2mb 69f 69f
10:18 8 9 mph 1024.2mb 69f 68f
10:12 9
mph
1024.3mb 69f 68f
10:06 8 9 mph 1024.3mb 70f 67f
10:00 7 8 mph 1024.4mb 70f 67f
9:54 6 7 mph 1024.5mb 70f 67f
9:48 5 6 mph 1024.7mb 70f 67f
9:42 5 6 mph 1024.7mb 71f 66f
9:36 6
mph
1024.8mb 71f 66f
9:30 3 6 mph 1024.8mb 71f 66f
9:24 6 7 mph 1024.8mb 71f 66f
9:18 6 7 mph 1024.8mb 71f 66f
9:12 6 8 mph 1024.8mb 71f 65f
9:06 6 8 mph 1024.9mb 71f 65f
9:00 7 8 mph 1024.9mb 71f 65f
8:54 6 9 mph 1024.9mb 71f 65f
8:48 7
mph
1024.9mb 71f 65f
8:42 6 8 mph 1025mb 70f 65f
8:36 6 8 mph 1024.9mb 70f 65f
8:30 7 8 mph 1024.8mb 70f 65f
8:24 6 7 mph 1024.7mb 70f 65f
8:18 6 8 mph 1024.7mb 70f 65f
8:12 6 7 mph 1024.7mb 70f 65f
8:06 6
mph
1024.7mb 70f 65f
8:00 6 8 mph 1024.6mb 70f 64f
7:54 7 8 mph 1024.5mb 70f 64f
7:48 7
mph
1024.6mb 70f 64f
7:42 6 7 mph 1024.5mb 70f 64f
7:36 7
mph
1024.5mb 70f 64f
7:30 7
mph
1024.4mb 70f 63f
7:24 6 7 mph 1024.4mb 70f 63f
7:18 6
mph
1024.3mb 70f 63f
7:12 6
mph
1024.4mb 70f 63f
7:06 5 6 mph 1024.4mb 70f 63f
7:00 5
mph
1024.3mb 70f 62f
6:54 5
mph
1024.2mb 71f 62f
6:48 5
mph
1024.1mb 71f 62f
6:42 3 5 mph 1024.1mb 71f 62f
6:36 3
mph
1024.1mb 71f 62f
6:30 2 3 mph 1024mb 71f 62f
6:24 3
mph
1024mb 71f 61f
6:18 3
mph
1024.1mb 71f 61f
6:12 2 3 mph 1024.1mb 71f 61f
6:06 3
mph
1024.2mb 71f 61f
6:00 2 3 mph 1024.3mb 71f 60f
5:54 3
mph
1024.3mb 71f 61f
5:48 3
mph
1024.5mb 71f 61f
5:42 1 2 mph 1024.5mb 71f 61f
5:36 1 2 mph 1024.5mb 71f 61f
5:30 1 2 mph 1024.6mb 71f 61f
5:24 1 2 mph 1024.6mb 71f 61f
5:18 2 3 mph 1024.6mb 71f 61f
5:12 3 5 mph 1024.7mb 71f 61f